Mt Bomar Mars — 9HCM9 — position and weather

sailwx.info

Track history (hours):
 
Tides and Currents Weather Stations Pressure Air Temp Water Temp Dewpoint Dewpoint Depression Visibility Wind Speed Wind Dir Waves Ship Positions

Mt Bomar Mars

Last reported at 2018-Jan-12 15:01 UTC. Time now 2018-Jan-18 04:06 UTC.
Position N 59°21' E 010°35'.

Length 107 m; draft 6 m.

Type: Ship. MMSI: 256784000.

Date/timePositionNaut miles runAvg speedWind from/ knotsBaromVisibWave heightAir tempDewpointWater temp
2018-Jan-12 15:01N 59°21' E 010°35'612.0
2018-Jan-12 14:31N 59°15' E 010°37'612.0
2018-Jan-12 14:01N 59°09' E 010°39'611.3
2018-Jan-12 13:31N 59°04' E 010°34'612.5
2018-Jan-12 13:00N 58°58' E 010°37'713.6
2018-Jan-12 12:30N 58°51' E 010°40'713.9
2018-Jan-12 12:00N 58°44' E 010°42'713.9
2018-Jan-12 11:31N 58°38' E 010°45'714.6
2018-Jan-12 11:01N 58°31' E 010°47'814.5
2018-Jan-12 10:27N 58°23' E 010°50'614.1
2018-Jan-12 10:00N 58°17' E 010°53'714.3
2018-Jan-12 09:30N 58°10' E 010°56'714.6
2018-Jan-12 09:00N 58°02' E 010°58'713.9
2018-Jan-12 08:30N 57°56' E 011°03'713.5
2018-Jan-12 08:00N 57°50' E 011°08'714.0
2018-Jan-12 07:30N 57°43' E 011°13'714.3
2018-Jan-12 07:00N 57°37' E 011°19'714.3
2018-Jan-12 06:30N 57°30' E 011°24'714.6
2018-Jan-12 06:00N 57°23' E 011°29'714.3
2018-Jan-12 05:30N 57°17' E 011°34'714.2
2018-Jan-12 05:00N 57°10' E 011°38'713.8
2018-Jan-12 04:30N 57°03' E 011°42'10612.2
2018-Jan-11 19:49N 55°19' E 011°02'412.2
2018-Jan-11 19:29N 55°16' E 011°05'612.5
2018-Jan-11 19:00N 55°10' E 011°03'714.2
2018-Jan-11 18:30N 55°03' E 011°02'713.3
2018-Jan-11 18:00N 54°57' E 010°57'713.7
2018-Jan-11 17:30N 54°50' E 010°52'714.1
2018-Jan-11 16:59N 54°43' E 010°52'612.6
2018-Jan-11 16:30N 54°38' E 010°47'713.1
2018-Jan-11 16:00N 54°34' E 010°37'34 7.4
2018-Jan-11 11:23N 54°20' E 009°44'3 7.4
2018-Jan-11 11:01N 54°18' E 009°41'3 5.7
2018-Jan-11 10:30N 54°16' E 009°37'3 6.8
2018-Jan-11 10:00N 54°13' E 009°35'4 8.7
2018-Jan-11 09:30N 54°11' E 009°28'4 8.6
2018-Jan-11 08:59N 54°09' E 009°21'8 7.7
2018-Jan-11 07:59N 54°01' E 009°18'4 8.1
2018-Jan-11 07:30N 53°58' E 009°15'3 6.6
2018-Jan-11 07:00N 53°55' E 009°12'0 0.0
2018-Jan-11 06:28N 53°55' E 009°12'0 0.0
2018-Jan-11 05:58N 53°55' E 009°12'0 0.0
2018-Jan-11 05:28N 53°55' E 009°12'0 0.0
2018-Jan-11 04:58N 53°55' E 009°12'0 0.0
2018-Jan-11 04:28N 53°55' E 009°12'0 0.0
2018-Jan-11 03:55N 53°55' E 009°12'0 0.0
2018-Jan-11 03:28N 53°55' E 009°12'0 0.0
2018-Jan-11 02:55N 53°55' E 009°12'0 0.0
2018-Jan-11 02:22N 53°55' E 009°12'0 0.0
2018-Jan-11 01:55N 53°55' E 009°12'0 0.0
2018-Jan-11 01:22N 53°55' E 009°12'0 0.0
2018-Jan-11 00:58N 53°55' E 009°12'0 0.0
2018-Jan-11 00:28N 53°55' E 009°12'0 0.0
2018-Jan-10 23:58N 53°55' E 009°12'0 0.0
2018-Jan-10 23:28N 53°55' E 009°12'0 0.0
2018-Jan-10 22:55N 53°55' E 009°12'0 0.0
2018-Jan-10 22:28N 53°55' E 009°12'0 0.0
2018-Jan-10 21:52N 53°55' E 009°12'0 0.0
2018-Jan-10 21:25N 53°55' E 009°12'0 0.0
2018-Jan-10 20:58N 53°55' E 009°12'0 0.0
2018-Jan-10 20:28N 53°55' E 009°12'0 0.0
2018-Jan-10 19:58N 53°55' E 009°12'0 0.0
2018-Jan-10 19:25N 53°55' E 009°12'0 0.0
2018-Jan-10 18:58N 53°55' E 009°12'0 0.0
2018-Jan-10 18:28N 53°55' E 009°12'0 0.0
2018-Jan-10 17:58N 53°55' E 009°12'0 0.0
2018-Jan-10 17:25N 53°55' E 009°12'0 0.0
2018-Jan-10 16:55N 53°55' E 009°12'0 0.0
2018-Jan-10 16:25N 53°55' E 009°12'0 0.0
2018-Jan-10 15:52N 53°55' E 009°12'0 0.0
2018-Jan-10 15:25N 53°55' E 009°12'0 0.0
2018-Jan-10 14:58N 53°55' E 009°12'0 0.0
2018-Jan-10 14:25N 53°55' E 009°12'0 0.0
2018-Jan-10 13:55N 53°55' E 009°12'0 0.0
2018-Jan-10 13:28N 53°55' E 009°12'0 0.0
2018-Jan-10 12:58N 53°55' E 009°12'0 0.0
2018-Jan-10 12:28N 53°55' E 009°12'0 0.0
2018-Jan-10 11:55N 53°55' E 009°12'0 0.0
2018-Jan-10 11:28N 53°55' E 009°12'0 0.0
2018-Jan-10 10:58N 53°55' E 009°12'0 0.0
2018-Jan-10 10:25N 53°55' E 009°12'0 0.0
2018-Jan-10 10:00N 53°55' E 009°12'0 0.8
2018-Jan-10 09:31N 53°55' E 009°11'2 4.3
2018-Jan-10 09:00N 53°54' E 009°09'0 0.8
2018-Jan-10 08:30N 53°53' E 009°08'2 4.3
2018-Jan-10 08:01N 53°53' E 009°05'510.3
2018-Jan-10 07:30N 53°51' E 008°57'612.6
2018-Jan-10 07:00N 53°51' E 008°46'612.8
2018-Jan-10 06:30N 53°56' E 008°39'611.9
2018-Jan-10 06:00N 53°58' E 008°30'612.0
2018-Jan-10 05:30N 53°59' E 008°20'612.0
2018-Jan-10 05:01N 53°60' E 008°10'5 9.2
2018-Jan-10 04:30N 54°00' E 008°02'5 9.1
2018-Jan-10 04:00N 54°03' E 007°56'26110.8
2018-Jan-09 03:54N 54°29' E 000°32'4 9.9
2018-Jan-09 03:30N 54°31' E 000°26'5 9.6
2018-Jan-09 02:59N 54°32' E 000°18'510.0
2018-Jan-09 02:31N 54°34' E 000°10'5 9.9
2018-Jan-09 02:00N 54°36' E 000°02'5 9.3
2018-Jan-09 01:30N 54°37' W 000°06'5 9.4
2018-Jan-09 01:00N 54°40' W 000°13'4 8.9
2018-Jan-09 00:30N 54°41' W 000°20'18 9.9
2018-Jan-08 22:42N 54°41' W 000°51'2 9.9
2018-Jan-08 22:30N 54°41' W 000°54'7 0.2
2018-Jan-07 11:02N 54°42' W 001°06'0 2.6
2018-Jan-07 10:59N 54°42' W 001°05'3 6.0
2018-Jan-07 10:30N 54°44' W 001°03'2 4.2
2018-Jan-07 10:00N 54°46' W 001°01'2 3.5
2018-Jan-07 09:30N 54°47' W 000°59'2 3.1
2018-Jan-07 09:00N 54°48' W 000°57'2 3.2
2018-Jan-07 08:30N 54°50' W 000°58'1 1.7
2018-Jan-07 08:00N 54°51' W 000°58'1 1.2
2018-Jan-07 07:30N 54°50' W 000°59'1 1.0
2018-Jan-07 07:00N 54°50' W 000°59'0 1.0
2018-Jan-07 06:30N 54°49' W 000°59'0 0.9
2018-Jan-07 06:00N 54°49' W 000°60'0 0.9
2018-Jan-07 05:30N 54°48' W 000°60'0 0.9
2018-Jan-07 05:00N 54°48' W 000°60'0 0.9
2018-Jan-07 04:30N 54°47' W 000°60'1 1.1
2018-Jan-07 04:00N 54°47' W 000°60'1 1.1
2018-Jan-07 03:30N 54°46' W 000°59'1 1.3
2018-Jan-07 03:00N 54°46' W 000°59'1 1.6
2018-Jan-07 02:30N 54°45' W 000°58'2 1.8
2018-Jan-07 01:38N 54°44' W 000°57'0 2.5
2018-Jan-07 01:30N 54°44' W 000°57'6 6.4
2018-Jan-07 00:30N 54°50' W 000°52'2 1.8
2018-Jan-06 23:38N 54°51' W 000°50'0 1.2
2018-Jan-06 23:30N 54°51' W 000°50'1 1.4
2018-Jan-06 23:00N 54°50' W 000°50'1 1.3
2018-Jan-06 22:30N 54°49' W 000°50'1 1.1
2018-Jan-06 22:00N 54°49' W 000°50'1 1.4
2018-Jan-06 21:30N 54°48' W 000°51'1 1.6
2018-Jan-06 21:00N 54°47' W 000°51'1 1.0
2018-Jan-06 20:29N 54°47' W 000°52'0 0.8
2018-Jan-06 19:59N 54°47' W 000°52'0 0.6
2018-Jan-06 19:27N 54°46' W 000°52'1 0.9
2018-Jan-06 18:12N 54°45' W 000°52'0 1.5
2018-Jan-06 17:58N 54°45' W 000°53'1 1.4
2018-Jan-06 17:03N 54°44' W 000°54'1 1.3
2018-Jan-06 16:34N 54°44' W 000°55'0 1.2
2018-Jan-06 16:30N 54°44' W 000°55'2 1.6
2018-Jan-06 15:26N 54°42' W 000°57'19 6.4
2018-Jan-06 12:29N 54°34' W 000°28'511.6
2018-Jan-06 12:01N 54°30' W 000°21'611.8
2018-Jan-06 11:30N 54°26' W 000°14'611.8
2018-Jan-06 11:00N 54°21' W 000°07'611.7
2018-Jan-06 10:30N 54°17' W 000°00'611.6
2018-Jan-06 10:00N 54°12' E 000°06'611.1
2018-Jan-06 09:30N 54°07' E 000°09'510.9
2018-Jan-06 09:01N 54°02' E 000°12'28 7.2
2018-Jan-06 05:08N 53°35' E 000°04'210.5
2018-Jan-06 04:59N 53°35' E 000°01'510.5
2018-Jan-06 04:30N 53°37' W 000°07'3 0.1
2018-Jan-04 14:44N 53°38' W 000°12'0 1.2
2018-Jan-04 14:31N 53°38' W 000°11'2 4.1
2018-Jan-04 14:00N 53°38' W 000°08'4 8.4
2018-Jan-04 13:30N 53°36' W 000°02'4 8.3
2018-Jan-04 12:59N 53°34' E 000°05'43 3.7
2018-Jan-04 01:23N 53°17' E 001°12'514.7
2018-Jan-04 01:00N 53°13' E 001°18'714.0
2018-Jan-04 00:30N 53°08' E 001°27'713.5
2018-Jan-04 00:00N 53°04' E 001°35'612.8
2018-Jan-03 23:30N 53°01' E 001°44'612.3
2018-Jan-03 23:00N 52°58' E 001°53'611.8
2018-Jan-03 22:30N 52°55' E 002°02'84 3.2
2018-Jan-02 20:27N 51°47' E 003°21'  
Track history (hours):
 
Tides and Currents Weather Stations Pressure Air Temp Water Temp Dewpoint Dewpoint Depression Visibility Wind Speed Wind Dir Waves Ship Positions

Mt Bomar Mars

Last reported at 2018-Jan-12 15:01 UTC. Time now 2018-Jan-18 04:06 UTC.
Position N 59°21' E 010°35'.

Length 107 m; draft 6 m.

Type: Ship. MMSI: 256784000.

Date/timePositionNaut miles runAvg speedWind from/ knotsBaromVisibWave heightAir tempDewpointWater temp
2018-Jan-12 15:01N 59°21' E 010°35'612.0
2018-Jan-12 14:31N 59°15' E 010°37'612.0
2018-Jan-12 14:01N 59°09' E 010°39'611.3
2018-Jan-12 13:31N 59°04' E 010°34'612.5
2018-Jan-12 13:00N 58°58' E 010°37'713.6
2018-Jan-12 12:30N 58°51' E 010°40'713.9
2018-Jan-12 12:00N 58°44' E 010°42'713.9
2018-Jan-12 11:31N 58°38' E 010°45'714.6
2018-Jan-12 11:01N 58°31' E 010°47'814.5
2018-Jan-12 10:27N 58°23' E 010°50'614.1
2018-Jan-12 10:00N 58°17' E 010°53'714.3
2018-Jan-12 09:30N 58°10' E 010°56'714.6
2018-Jan-12 09:00N 58°02' E 010°58'713.9
2018-Jan-12 08:30N 57°56' E 011°03'713.5
2018-Jan-12 08:00N 57°50' E 011°08'714.0
2018-Jan-12 07:30N 57°43' E 011°13'714.3
2018-Jan-12 07:00N 57°37' E 011°19'714.3
2018-Jan-12 06:30N 57°30' E 011°24'714.6
2018-Jan-12 06:00N 57°23' E 011°29'714.3
2018-Jan-12 05:30N 57°17' E 011°34'714.2
2018-Jan-12 05:00N 57°10' E 011°38'713.8
2018-Jan-12 04:30N 57°03' E 011°42'10612.2
2018-Jan-11 19:49N 55°19' E 011°02'412.2
2018-Jan-11 19:29N 55°16' E 011°05'612.5
2018-Jan-11 19:00N 55°10' E 011°03'714.2
2018-Jan-11 18:30N 55°03' E 011°02'713.3
2018-Jan-11 18:00N 54°57' E 010°57'713.7
2018-Jan-11 17:30N 54°50' E 010°52'714.1
2018-Jan-11 16:59N 54°43' E 010°52'612.6
2018-Jan-11 16:30N 54°38' E 010°47'713.1
2018-Jan-11 16:00N 54°34' E 010°37'34 7.4
2018-Jan-11 11:23N 54°20' E 009°44'3 7.4
2018-Jan-11 11:01N 54°18' E 009°41'3 5.7
2018-Jan-11 10:30N 54°16' E 009°37'3 6.8
2018-Jan-11 10:00N 54°13' E 009°35'4 8.7
2018-Jan-11 09:30N 54°11' E 009°28'4 8.6
2018-Jan-11 08:59N 54°09' E 009°21'8 7.7
2018-Jan-11 07:59N 54°01' E 009°18'4 8.1
2018-Jan-11 07:30N 53°58' E 009°15'3 6.6
2018-Jan-11 07:00N 53°55' E 009°12'0 0.0
2018-Jan-11 06:28N 53°55' E 009°12'0 0.0
2018-Jan-11 05:58N 53°55' E 009°12'0 0.0
2018-Jan-11 05:28N 53°55' E 009°12'0 0.0
2018-Jan-11 04:58N 53°55' E 009°12'0 0.0
2018-Jan-11 04:28N 53°55' E 009°12'0 0.0
2018-Jan-11 03:55N 53°55' E 009°12'0 0.0
2018-Jan-11 03:28N 53°55' E 009°12'0 0.0
2018-Jan-11 02:55N 53°55' E 009°12'0 0.0
2018-Jan-11 02:22N 53°55' E 009°12'0 0.0
2018-Jan-11 01:55N 53°55' E 009°12'0 0.0
2018-Jan-11 01:22N 53°55' E 009°12'0 0.0
2018-Jan-11 00:58N 53°55' E 009°12'0 0.0
2018-Jan-11 00:28N 53°55' E 009°12'0 0.0
2018-Jan-10 23:58N 53°55' E 009°12'0 0.0
2018-Jan-10 23:28N 53°55' E 009°12'0 0.0
2018-Jan-10 22:55N 53°55' E 009°12'0 0.0
2018-Jan-10 22:28N 53°55' E 009°12'0 0.0
2018-Jan-10 21:52N 53°55' E 009°12'0 0.0
2018-Jan-10 21:25N 53°55' E 009°12'0 0.0
2018-Jan-10 20:58N 53°55' E 009°12'0 0.0
2018-Jan-10 20:28N 53°55' E 009°12'0 0.0
2018-Jan-10 19:58N 53°55' E 009°12'0 0.0
2018-Jan-10 19:25N 53°55' E 009°12'0 0.0
2018-Jan-10 18:58N 53°55' E 009°12'0 0.0
2018-Jan-10 18:28N 53°55' E 009°12'0 0.0
2018-Jan-10 17:58N 53°55' E 009°12'0 0.0
2018-Jan-10 17:25N 53°55' E 009°12'0 0.0
2018-Jan-10 16:55N 53°55' E 009°12'0 0.0
2018-Jan-10 16:25N 53°55' E 009°12'0 0.0
2018-Jan-10 15:52N 53°55' E 009°12'0 0.0
2018-Jan-10 15:25N 53°55' E 009°12'0 0.0
2018-Jan-10 14:58N 53°55' E 009°12'0 0.0
2018-Jan-10 14:25N 53°55' E 009°12'0 0.0
2018-Jan-10 13:55N 53°55' E 009°12'0 0.0
2018-Jan-10 13:28N 53°55' E 009°12'0 0.0
2018-Jan-10 12:58N 53°55' E 009°12'0 0.0
2018-Jan-10 12:28N 53°55' E 009°12'0 0.0
2018-Jan-10 11:55N 53°55' E 009°12'0 0.0
2018-Jan-10 11:28N 53°55' E 009°12'0 0.0
2018-Jan-10 10:58N 53°55' E 009°12'0 0.0
2018-Jan-10 10:25N 53°55' E 009°12'0 0.0
2018-Jan-10 10:00N 53°55' E 009°12'0 0.8
2018-Jan-10 09:31N 53°55' E 009°11'2 4.3
2018-Jan-10 09:00N 53°54' E 009°09'0 0.8
2018-Jan-10 08:30N 53°53' E 009°08'2 4.3
2018-Jan-10 08:01N 53°53' E 009°05'510.3
2018-Jan-10 07:30N 53°51' E 008°57'612.6
2018-Jan-10 07:00N 53°51' E 008°46'612.8
2018-Jan-10 06:30N 53°56' E 008°39'611.9
2018-Jan-10 06:00N 53°58' E 008°30'612.0
2018-Jan-10 05:30N 53°59' E 008°20'612.0
2018-Jan-10 05:01N 53°60' E 008°10'5 9.2
2018-Jan-10 04:30N 54°00' E 008°02'5 9.1
2018-Jan-10 04:00N 54°03' E 007°56'26110.8
2018-Jan-09 03:54N 54°29' E 000°32'4 9.9
2018-Jan-09 03:30N 54°31' E 000°26'5 9.6
2018-Jan-09 02:59N 54°32' E 000°18'510.0
2018-Jan-09 02:31N 54°34' E 000°10'5 9.9
2018-Jan-09 02:00N 54°36' E 000°02'5 9.3
2018-Jan-09 01:30N 54°37' W 000°06'5 9.4
2018-Jan-09 01:00N 54°40' W 000°13'4 8.9
2018-Jan-09 00:30N 54°41' W 000°20'18 9.9
2018-Jan-08 22:42N 54°41' W 000°51'2 9.9
2018-Jan-08 22:30N 54°41' W 000°54'7 0.2
2018-Jan-07 11:02N 54°42' W 001°06'0 2.6
2018-Jan-07 10:59N 54°42' W 001°05'3 6.0
2018-Jan-07 10:30N 54°44' W 001°03'2 4.2
2018-Jan-07 10:00N 54°46' W 001°01'2 3.5
2018-Jan-07 09:30N 54°47' W 000°59'2 3.1
2018-Jan-07 09:00N 54°48' W 000°57'2 3.2
2018-Jan-07 08:30N 54°50' W 000°58'1 1.7
2018-Jan-07 08:00N 54°51' W 000°58'1 1.2
2018-Jan-07 07:30N 54°50' W 000°59'1 1.0
2018-Jan-07 07:00N 54°50' W 000°59'0 1.0
2018-Jan-07 06:30N 54°49' W 000°59'0 0.9
2018-Jan-07 06:00N 54°49' W 000°60'0 0.9
2018-Jan-07 05:30N 54°48' W 000°60'0 0.9
2018-Jan-07 05:00N 54°48' W 000°60'0 0.9
2018-Jan-07 04:30N 54°47' W 000°60'1 1.1
2018-Jan-07 04:00N 54°47' W 000°60'1 1.1
2018-Jan-07 03:30N 54°46' W 000°59'1 1.3
2018-Jan-07 03:00N 54°46' W 000°59'1 1.6
2018-Jan-07 02:30N 54°45' W 000°58'2 1.8
2018-Jan-07 01:38N 54°44' W 000°57'0 2.5
2018-Jan-07 01:30N 54°44' W 000°57'6 6.4
2018-Jan-07 00:30N 54°50' W 000°52'2 1.8
2018-Jan-06 23:38N 54°51' W 000°50'0 1.2
2018-Jan-06 23:30N 54°51' W 000°50'1 1.4
2018-Jan-06 23:00N 54°50' W 000°50'1 1.3
2018-Jan-06 22:30N 54°49' W 000°50'1 1.1
2018-Jan-06 22:00N 54°49' W 000°50'1 1.4
2018-Jan-06 21:30N 54°48' W 000°51'1 1.6
2018-Jan-06 21:00N 54°47' W 000°51'1 1.0
2018-Jan-06 20:29N 54°47' W 000°52'0 0.8
2018-Jan-06 19:59N 54°47' W 000°52'0 0.6
2018-Jan-06 19:27N 54°46' W 000°52'1 0.9
2018-Jan-06 18:12N 54°45' W 000°52'0 1.5
2018-Jan-06 17:58N 54°45' W 000°53'1 1.4
2018-Jan-06 17:03N 54°44' W 000°54'1 1.3
2018-Jan-06 16:34N 54°44' W 000°55'0 1.2
2018-Jan-06 16:30N 54°44' W 000°55'2 1.6
2018-Jan-06 15:26N 54°42' W 000°57'19 6.4
2018-Jan-06 12:29N 54°34' W 000°28'511.6
2018-Jan-06 12:01N 54°30' W 000°21'611.8
2018-Jan-06 11:30N 54°26' W 000°14'611.8
2018-Jan-06 11:00N 54°21' W 000°07'611.7
2018-Jan-06 10:30N 54°17' W 000°00'611.6
2018-Jan-06 10:00N 54°12' E 000°06'611.1
2018-Jan-06 09:30N 54°07' E 000°09'510.9
2018-Jan-06 09:01N 54°02' E 000°12'28 7.2
2018-Jan-06 05:08N 53°35' E 000°04'210.5
2018-Jan-06 04:59N 53°35' E 000°01'510.5
2018-Jan-06 04:30N 53°37' W 000°07'3 0.1
2018-Jan-04 14:44N 53°38' W 000°12'0 1.2
2018-Jan-04 14:31N 53°38' W 000°11'2 4.1
2018-Jan-04 14:00N 53°38' W 000°08'4 8.4
2018-Jan-04 13:30N 53°36' W 000°02'4 8.3
2018-Jan-04 12:59N 53°34' E 000°05'43 3.7
2018-Jan-04 01:23N 53°17' E 001°12'514.7
2018-Jan-04 01:00N 53°13' E 001°18'714.0
2018-Jan-04 00:30N 53°08' E 001°27'713.5
2018-Jan-04 00:00N 53°04' E 001°35'612.8
2018-Jan-03 23:30N 53°01' E 001°44'612.3
2018-Jan-03 23:00N 52°58' E 001°53'611.8
2018-Jan-03 22:30N 52°55' E 002°02'84 3.2
2018-Jan-02 20:27N 51°47' E 003°21'  

Dump ship's entire track history